createdAt,value
2022-08-17T00:06:05.196Z,0.94
2022-08-17T00:21:05.326Z,1.12
2022-08-17T00:36:05.193Z,1.33
2022-08-17T00:51:05.840Z,2.07
2022-08-17T01:06:05.380Z,2.55
2022-08-17T01:21:05.255Z,2.39
2022-08-17T01:36:05.328Z,3.04
2022-08-17T01:51:05.446Z,2.03
2022-08-17T02:06:05.585Z,1.84
2022-08-17T02:21:05.421Z,1.03
2022-08-17T02:36:05.585Z,1.47
2022-08-17T02:51:05.631Z,1.31
2022-08-17T03:06:05.638Z,0.79
2022-08-17T03:21:05.578Z,0.09
2022-08-17T03:36:05.615Z,0.36
2022-08-17T03:51:05.687Z,0.97
2022-08-17T04:06:05.822Z,0.46
2022-08-17T04:21:05.878Z,0.04
2022-08-17T04:36:05.777Z,0.00
2022-08-17T04:51:05.716Z,0.18
2022-08-17T05:06:05.914Z,0.00
2022-08-17T05:21:05.971Z,0.02
2022-08-17T05:36:05.908Z,0.17
2022-08-17T05:51:06.115Z,1.65
2022-08-17T06:06:06.179Z,1.66
2022-08-17T06:21:06.075Z,1.14
2022-08-17T06:36:09.605Z,2.46
2022-08-17T06:51:06.185Z,1.51
2022-08-17T07:06:06.115Z,1.37
2022-08-17T07:21:06.391Z,1.92
2022-08-17T07:36:06.216Z,1.38
2022-08-17T07:51:06.247Z,1.54
2022-08-17T08:06:06.280Z,1.80
2022-08-17T08:21:06.337Z,2.06
2022-08-17T08:36:06.394Z,1.81
2022-08-17T08:51:06.462Z,1.71
2022-08-17T09:06:06.378Z,2.38
2022-08-17T09:21:06.412Z,1.77
2022-08-17T09:36:06.561Z,1.96
2022-08-17T09:51:06.832Z,1.85
2022-08-17T10:06:06.855Z,1.97
2022-08-17T10:21:06.694Z,2.01
2022-08-17T10:36:10.689Z,2.48
2022-08-17T10:51:06.833Z,3.39
2022-08-17T11:06:06.921Z,3.31
2022-08-17T11:21:06.885Z,3.92
2022-08-17T11:36:06.946Z,4.11
2022-08-17T11:51:07.063Z,3.74
2022-08-17T12:06:07.135Z,3.84
2022-08-17T12:21:07.169Z,2.69
2022-08-17T12:36:07.063Z,3.56
2022-08-17T12:51:07.110Z,2.64
2022-08-17T13:06:07.091Z,3.23
2022-08-17T13:21:07.065Z,3.25
2022-08-17T13:36:07.437Z,2.58
2022-08-17T13:51:07.758Z,3.56
2022-08-17T14:06:07.755Z,4.79
2022-08-17T14:21:07.819Z,4.26
2022-08-17T14:36:07.803Z,3.72
2022-08-17T14:51:07.858Z,3.61
2022-08-17T15:06:07.905Z,3.18
2022-08-17T15:21:07.784Z,3.30
2022-08-17T15:36:07.887Z,3.24
2022-08-17T15:51:07.956Z,2.62
2022-08-17T16:06:07.924Z,3.08
2022-08-17T16:21:08.078Z,3.04
2022-08-17T16:36:08.116Z,3.47
2022-08-17T16:51:08.101Z,2.79
2022-08-17T17:06:08.135Z,3.25
2022-08-17T17:21:08.168Z,3.28
2022-08-17T17:36:08.118Z,2.85
2022-08-17T17:51:08.325Z,2.50
2022-08-17T18:06:10.392Z,1.80
2022-08-17T18:21:08.465Z,1.58
2022-08-17T18:36:08.450Z,1.66
2022-08-17T18:51:08.469Z,1.96
2022-08-17T19:06:08.332Z,1.57
2022-08-17T19:21:08.463Z,1.59
2022-08-17T19:36:08.521Z,1.85
2022-08-17T19:51:08.473Z,2.25
2022-08-17T20:06:13.016Z,1.95
2022-08-17T20:21:08.726Z,1.82
2022-08-17T20:36:08.707Z,0.63
2022-08-17T20:51:08.771Z,0.49
2022-08-17T21:06:16.814Z,0.98
2022-08-17T21:21:08.875Z,1.03
2022-08-17T21:36:08.676Z,0.94
2022-08-17T21:51:08.800Z,0.94
2022-08-17T22:06:08.937Z,0.81
2022-08-17T22:21:08.971Z,1.47
2022-08-17T22:36:08.906Z,1.03
2022-08-17T22:51:12.540Z,0.00
2022-08-17T23:06:08.996Z,0.00
2022-08-17T23:21:09.104Z,0.00
2022-08-17T23:36:09.205Z,0.05
2022-08-17T23:51:09.443Z,0.00
